Data for 07/01/2006

Time Sea-Level Adjusted Pressure Absolute Pressure Temperature Relative Humidity Dew Point   
(mb) (inHg) (mb) (inHg) (C) (F) (%) (C) (F)
00:05 1022 30.18 851 25.13 16 60.8 69 10.3 50.5
00:10 1022 30.18 851 25.13 15.9 60.7 68 10.2 50.4
00:15 1022 30.18 851 25.13 16 60.8 68 10.1 50.3
00:20 1022 30.18 851 25.13 15.9 60.7 69 10.2 50.4
00:25 1022 30.18 851 25.13 15.7 60.2 70 10.2 50.3
00:30 1022 30.18 851 25.13 15.6 60.2 68 9.9 49.8
00:35 1022 30.18 851 25.13 16.1 60.9 65 9.6 49.3
00:40 1022 30.18 851 25.13 16.4 61.6 64 9.6 49.3
00:45 1022 30.18 851 25.13 16.5 61.7 65 9.9 49.8
00:50 1022 30.18 851 25.13 16.4 61.6 64 9.7 49.4
00:55 1022 30.18 851 25.13 16.4 61.6 64 9.7 49.4
01:00 1022 30.18 851 25.13 16.4 61.6 65 9.8 49.6
01:05 1022 30.18 851 25.13 16.3 61.3 65 9.7 49.5
01:10 1022 30.18 851 25.13 16.1 61 66 9.8 49.7
01:15 1022 30.18 851 25.13 15.9 60.5 67 9.8 49.6
01:20 1022 30.18 851 25.13 15.7 60.3 67 9.7 49.4
01:25 1022 30.18 851 25.13 15.7 60.2 68 9.8 49.6
01:30 1022 30.18 851 25.13 15.6 60.1 67 9.6 49.3
01:35 1022 30.18 851 25.13 15.8 60.5 66 9.5 49
01:40 1022 30.18 851 25.13 16 60.9 65 9.6 49.3
01:45 1022 30.18 851 25.13 15.9 60.6 66 9.7 49.4
01:50 1022 30.18 851 25.13 15.7 60.2 67 9.6 49.3
01:55 1022 30.18 851 25.13 15.7 60.2 67 9.5 49.2
02:00 1022 30.18 851 25.13 15.6 60.1 66 9.3 48.8
02:05 1022 30.18 851 25.13 15.8 60.5 65 9.3 48.7
02:10 1022 30.18 852 25.16 16.5 61.7 68 10.7 51.3
02:15 1022 30.18 852 25.16 16.2 61.1 66 9.9 49.9
02:20 1022 30.18 852 25.16 15.6 60.1 68 9.8 49.6
02:25 1022 30.18 852 25.16 15.4 59.6 70 9.9 49.9
02:30 1022 30.18 852 25.16 15 58.9 72 10 50
02:35 1022 30.18 852 25.16 15.1 59.1 70 9.6 49.3
02:40 1022 30.18 852 25.16 15.1 59.2 70 9.8 49.6
02:45 1022 30.18 851 25.13 15.1 59.1 69 9.4 49
02:50 1022 30.18 851 25.13 15 59.1 68 9.3 48.8
02:55 1022 30.18 851 25.13 15 58.9 69 9.4 49
03:00 1022 30.18 851 25.13 15.2 59.3 67 9.1 48.4
03:05 1022 30.18 852 25.16 15.3 59.5 67 9.2 48.5
03:10 1022 30.18 852 25.16 15.4 59.6 71 10.1 50.2
03:15 1022 30.18 852 25.16 14.9 58.8 69 9.4 49
03:20 1022 30.18 852 25.16 14.3 57.8 71 9.2 48.5
03:25 1022 30.18 852 25.16 14.4 57.9 73 9.6 49.2
03:30 1022 30.18 852 25.16 14.8 58.6 70 9.5 49.1
03:35 1022 30.18 852 25.16 15.1 59.2 67 9.1 48.5
03:40 1022 30.18 852 25.16 15 59 70 9.6 49.2
03:45 1022 30.18 852 25.16 14.4 57.9 73 9.7 49.4
03:50 1022 30.18 852 25.16 13.9 56.9 78 10.1 50.1
03:55 1022 30.18 852 25.16 13.6 56.4 76 9.5 49.1
04:00 1022 30.18 852 25.16 13.8 56.8 73 9 48.2
04:05 1022 30.18 852 25.16 14 57.2 72 9 48.3
04:10 1022 30.18 852 25.16 14 57.2 73 9.4 48.8
04:15 1022 30.18 852 25.16 14.2 57.5 71 9 48.1
04:20 1022 30.18 851 25.13 14.3 57.7 70 8.9 48.1
04:25 1022 30.18 851 25.13 14.4 57.9 70 9 48.2
04:30 1022 30.18 851 25.13 14.2 57.5 70 8.9 48
04:35 1022 30.18 851 25.13 14.1 57.4 70 8.9 48
04:40 1022 30.18 851 25.13 14.3 57.7 70 8.9 48
04:45 1022 30.18 851 25.13 14.1 57.3 72 9.2 48.5
04:50 1022 30.18 851 25.13 13.6 56.4 74 9.1 48.4
04:55 1022 30.18 852 25.16 13.5 56.2 74 8.9 48
05:00 1022 30.18 852 25.16 13.5 56.3 75 9.1 48.4
05:05 1022 30.18 852 25.16 13.3 55.9 75 9 48.2
05:10 1022 30.18 852 25.16 13.2 55.7 75 8.9 48
05:15 1022 30.18 852 25.16 13.1 55.5 76 8.9 48
05:20 1023 30.21 852 25.16 13.2 55.7 74 8.6 47.5
05:25 1023 30.21 852 25.16 13.5 56.4 72 8.7 47.6
05:30 1022 30.18 852 25.16 13.8 56.9 72 8.9 48
05:35 1022 30.18 852 25.16 14 57.1 71 8.8 47.8
05:40 1023 30.21 852 25.16 13.9 57.1 72 9 48.2
05:45 1023 30.21 852 25.16 13.7 56.6 73 8.9 48
05:50 1023 30.21 852 25.16 13.5 56.4 73 8.8 47.8
05:55 1023 30.21 852 25.16 13.4 56.1 74 8.9 48
06:00 1023 30.21 852 25.16 13.3 56 73 8.7 47.6
06:05 1023 30.21 852 25.16 13.4 56.1 73 8.8 47.8
06:10 1023 30.21 852 25.16 13.4 56 75 9 48.2
06:15 1023 30.21 852 25.16 13 55.4 76 8.8 47.9
06:20 1023 30.21 852 25.16 13.4 56.1 73 8.6 47.6
06:25 1023 30.21 852 25.16 13.8 56.8 72 8.8 47.9
06:30 1023 30.21 852 25.16 14 57.1 71 8.9 48.1
06:35 1023 30.21 852 25.16 14.2 57.5 70 8.9 48
06:40 1023 30.21 852 25.16 14.6 58.3 68 8.9 48
06:45 1023 30.21 852 25.16 14.5 58.1 70 9.1 48.5
06:50 1023 30.21 852 25.16 14.4 58 69 9 48.1
06:55 1023 30.21 852 25.16 14.5 58.1 69 8.9 48
07:00 1023 30.21 852 25.16 14.7 58.4 68 9 48.2
07:05 1023 30.21 852 25.16 14.6 58.3 72 9.6 49.3
07:10 1023 30.21 852 25.16 14.2 57.6 75 9.8 49.6
07:15 1023 30.21 852 25.16 14.2 57.5 73 9.4 48.9
07:20 1023 30.21 852 25.16 14.7 58.4 68 8.9 48.1
07:25 1023 30.21 852 25.16 15.2 59.4 66 9 48.1
07:30 1023 30.21 852 25.16 15.6 60 65 9.1 48.3
07:35 1023 30.21 852 25.16 15.6 60 65 9.1 48.4
07:40 1023 30.21 852 25.16 15.6 60.1 68 9.7 49.5
07:45 1023 30.21 852 25.16 15.7 60.2 64 9.1 48.3
07:50 1023 30.21 852 25.16 15.6 60.1 70 10.3 50.5
07:55 1023 30.21 852 25.16 15.8 60.4 68 9.9 49.8
08:00 1023 30.21 852 25.16 16.2 61.2 64 9.4 48.9
08:05 1023 30.21 852 25.16 16.8 62.3 62 9.6 49.3
08:10 1023 30.21 852 25.16 17.3 63.2 61 9.7 49.5
08:15 1023 30.21 852 25.16 17.9 64.3 59 9.9 49.9
08:20 1023 30.21 852 25.16 18.5 65.3 59 10.4 50.7
08:25 1023 30.21 852 25.16 18.9 66 58 10.7 51.2
08:30 1023 30.21 852 25.16 19.3 66.7 55 10.1 50.1
08:35 1023 30.21 852 25.16 20 68.1 53 10.4 50.7
08:40 1023 30.21 852 25.16 20.4 68.6 52 10.4 50.7
08:45 1023 30.21 852 25.16 20.3 68.6 53 10.6 51.1
08:50 1023 30.21 852 25.16 20.1 68.1 55 10.9 51.6
08:55 1024 30.24 853 25.19 19.8 67.6 57 11 51.8
09:00 1024 30.24 853 25.19 19.1 66.4 61 11.6 53
09:05 1024 30.24 853 25.19 18.4 65.1 68 12.5 54.4
09:10 1024 30.24 853 25.19 17.7 63.8 73 12.8 55
09:15 1024 30.24 854 25.22 17 62.6 79 13.3 55.9
09:20 1024 30.24 854 25.22 16.3 61.4 81 13 55.4
09:25 1025 30.27 854 25.22 15.7 60.3 78 12 53.6
09:30 1025 30.27 854 25.22 15.5 59.9 74 10.9 51.6
09:35 1025 30.27 854 25.22 15.5 60 81 12.3 54.1
09:40 1024 30.24 854 25.22 14.8 58.7 88 12.9 55.2
09:45 1024 30.24 853 25.19 14.2 57.6 89 12.4 54.4
09:50 1024 30.24 853 25.19 14 57.2 90 12.3 54.2
09:55 1024 30.24 853 25.19 14.1 57.3 89 12.3 54.2
10:00 1024 30.24 853 25.19 14.2 57.5 88 12.2 53.9
10:05 1024 30.24 853 25.19 14.4 57.9 86 12 53.6
10:10 1024 30.24 853 25.19 14.5 58.1 86 12.3 54.1
10:15 1024 30.24 853 25.19 14.8 58.6 83 11.9 53.4
10:20 1024 30.24 853 25.19 15.1 59.1 81 11.9 53.4
10:25 1024 30.24 853 25.19 15.3 59.5 83 12.4 54.4
10:30 1024 30.24 853 25.19 15.5 59.9 83 12.6 54.7
10:35 1024 30.24 853 25.19 16.3 61.4 79 12.7 54.9
10:40 1024 30.24 853 25.19 16.6 61.8 80 13.1 55.6
10:45 1024 30.24 853 25.19 16.8 62.2 80 13.3 56
10:50 1024 30.24 853 25.19 17.1 62.7 74 12.5 54.5
10:55 1024 30.24 853 25.19 17.6 63.6 74 12.8 55.1
11:00 1024 30.24 853 25.19 17.9 64.2 69 12.2 54
11:05 1024 30.24 853 25.19 17.8 64.1 72 12.8 55
11:10 1024 30.24 853 25.19 18.5 65.2 67 12.3 54.2
11:15 1024 30.24 853 25.19 18.6 65.5 67 12.5 54.4
11:20 1024 30.24 853 25.19 18.7 65.6 64 11.7 53.1
11:25 1024 30.24 853 25.19 19 66.2 60 11.1 52
11:30 1024 30.24 853 25.19 19.9 67.8 60 12 53.6
11:35 1024 30.24 853 25.19 20.4 68.7 58 11.9 53.5
11:40 1024 30.24 853 25.19 20.2 68.4 59 12.2 53.9
11:45 1024 30.24 853 25.19 20.4 68.7 57 11.6 53
11:50 1024 30.24 853 25.19 20.3 68.5 57 11.7 53.1
11:55 1024 30.24 853 25.19 19.9 67.8 56 11.1 51.9
12:00 1024 30.24 853 25.19 20.9 69.6 55 11.5 52.8
12:05 1024 30.24 853 25.19 21.2 70.1 51 10.9 51.6
12:10 1024 30.24 853 25.19 21.1 70 53 11.2 52.2
12:15 1024 30.24 853 25.19 21.3 70.4 52 11.2 52.2
12:20 1024 30.24 853 25.19 21.9 71.4 46 10 50
12:25 1024 30.24 853 25.19 21.8 71.3 50 11 51.8
12:30 1024 30.24 853 25.19 21.8 71.2 49 10.8 51.5
12:35 1023 30.21 853 25.19 22.1 71.8 43 9.2 48.6
12:40 1023 30.21 853 25.19 22.2 72 44 9.6 49.3
12:45 1023 30.21 853 25.19 22.8 73 43 9.7 49.4
12:50 1023 30.21 853 25.19 23.2 73.8 44 10.4 50.6
12:55 1023 30.21 853 25.19 23.1 73.6 45 10.6 51.2
13:00 1023 30.21 853 25.19 23.7 74.7 40 9.4 49
13:05 1023 30.21 852 25.16 23.7 74.6 39 8.9 48.1
13:10 1023 30.21 852 25.16 23.8 74.8 38 8.8 47.8
13:15 1023 30.21 852 25.16 23.7 74.7 36 8.2 46.7
13:20 1023 30.21 852 25.16 24.2 75.6 36 8.3 46.9
13:25 1023 30.21 852 25.16 24 75.3 37 8.5 47.3
13:30 1023 30.21 852 25.16 24 75.1 35 8 46.3
13:35 1023 30.21 852 25.16 24.3 75.8 35 8.1 46.6
13:40 1023 30.21 852 25.16 24.9 76.8 33 7.7 45.8
13:45 1023 30.21 852 25.16 25 76.9 32 7.5 45.5
13:50 1023 30.21 852 25.16 24.9 76.9 33 7.8 46
13:55 1023 30.21 852 25.16 25 77.1 33 7.9 46.2
14:00 1023 30.21 852 25.16 25.3 77.5 35 8.9 48
14:05 1023 30.21 852 25.16 25 77 35 8.8 47.8
14:10 1023 30.21 852 25.16 24.9 76.9 34 8.1 46.5
14:15 1023 30.21 852 25.16 24.8 76.6 34 8.3 46.9
14:20 1022 30.18 852 25.16 25.5 78 32 8.1 46.5
14:25 1022 30.18 852 25.16 25.7 78.3 33 8.3 46.9
14:30 1022 30.18 851 25.13 26.4 79.5 32 8.5 47.2
14:35 1022 30.18 851 25.13 26.7 80.1 32 8.8 47.8
14:40 1022 30.18 851 25.13 26.8 80.3 30 7.9 46.2
14:45 1022 30.18 851 25.13 26.5 79.6 31 8.2 46.8
14:50 1022 30.18 851 25.13 26.6 79.8 31 8.4 47.2
14:55 1022 30.18 851 25.13 26.5 79.7 30 7.6 45.6
15:00 1022 30.18 851 25.13 26.4 79.5 30 7.6 45.7
15:05 1022 30.18 851 25.13 27 80.7 28 7.5 45.4
15:10 1022 30.18 851 25.13 26.6 79.9 30 7.8 46
15:15 1022 30.18 851 25.13 26.7 80 29 7.3 45.2
15:20 1022 30.18 851 25.13 26.9 80.4 30 7.9 46.2
15:25 1022 30.18 851 25.13 26.9 80.3 29 7.7 45.8
15:30 1022 30.18 851 25.13 26.9 80.4 29 7.9 46.1
15:35 1022 30.18 851 25.13 27.4 81.4 29 8.3 46.9
15:40 1022 30.18 851 25.13 27 80.5 29 7.7 45.8
15:45 1022 30.18 851 25.13 27.3 81.2 29 7.8 46.1
15:50 1022 30.18 851 25.13 27.4 81.3 29 8 46.4
15:55 1022 30.18 851 25.13 26.3 79.4 30 7.8 46
16:00 1022 30.18 851 25.13 26.4 79.5 30 7.6 45.6
16:05 1022 30.18 851 25.13 26.5 79.8 29 7.4 45.3
16:10 1022 30.18 851 25.13 27 80.6 27 6.7 44.1
16:15 1022 30.18 851 25.13 27.3 81.2 26 6.6 43.9
16:20 1022 30.18 851 25.13 27.5 81.4 27 6.8 44.3
16:25 1021 30.15 851 25.13 27.7 81.9 26 6.8 44.3
16:30 1021 30.15 851 25.13 27.8 82 26 7.1 44.7
16:35 1021 30.15 851 25.13 27.4 81.4 27 7 44.6
16:40 1021 30.15 850 25.1 27.6 81.7 27 7.3 45.1
16:45 1021 30.15 850 25.1 27.2 81 27 7.1 44.8
16:50 1021 30.15 850 25.1 27.5 81.5 27 6.9 44.4
16:55 1021 30.15 850 25.1 27.4 81.3 27 7 44.6
17:00 1021 30.15 850 25.1 27 80.7 25 5.8 42.5
17:05 1021 30.15 850 25.1 27.9 82.1 23 5.2 41.3
17:10 1021 30.15 850 25.1 27.9 82.1 24 5.8 42.4
17:15 1021 30.15 850 25.1 27.8 82 24 5.4 41.8
17:20 1021 30.15 850 25.1 28.1 82.6 23 5.4 41.7
17:25 1021 30.15 850 25.1 27.7 81.8 25 6.2 43.2
17:30 1021 30.15 850 25.1 28.1 82.6 24 5.7 42.3
17:35 1021 30.15 850 25.1 27.8 82.1 24 5.4 41.8
17:40 1021 30.15 850 25.1 26.9 80.3 26 6.1 42.9
17:45 1021 30.15 850 25.1 27.7 81.9 24 5.4 41.7
17:50 1021 30.15 850 25.1 27.7 81.9 25 6.1 43.1
17:55 1021 30.15 850 25.1 28.1 82.6 25 6.7 44
18:00 1021 30.15 850 25.1 27.3 81.1 26 6.5 43.7
18:05 1021 30.15 850 25.1 26.9 80.5 27 6.9 44.3
18:10 1021 30.15 850 25.1 26.9 80.3 28 7.1 44.8
18:15 1021 30.15 850 25.1 27 80.6 28 7.3 45.2
18:20 1021 30.15 850 25.1 26.7 80 28 7.1 44.8
18:25 1021 30.15 850 25.1 26.1 78.9 29 6.7 44
18:30 1021 30.15 850 25.1 26.1 79 27 5.7 42.2
18:35 1021 30.15 850 25.1 26.4 79.5 28 6.5 43.8
18:40 1020 30.12 850 25.1 26.2 79.1 27 5.9 42.6
18:45 1020 30.12 850 25.1 26.4 79.5 26 5.8 42.5
18:50 1020 30.12 850 25.1 26.6 79.8 26 5.6 42.1
18:55 1020 30.12 850 25.1 26.2 79.1 27 5.8 42.5
19:00 1020 30.12 850 25.1 26.1 78.9 27 5.7 42.2
19:05 1020 30.12 850 25.1 26.1 79 27 6 42.8
19:10 1020 30.12 850 25.1 25.9 78.6 27 5.5 42
19:15 1020 30.12 850 25.1 25.7 78.3 27 5.6 42.1
19:20 1020 30.12 850 25.1 25.7 78.2 28 5.9 42.6
19:25 1020 30.12 850 25.1 25.7 78.2 27 5.6 42.1
19:30 1020 30.12 850 25.1 25.7 78.2 27 5.6 42.1
19:35 1020 30.12 850 25.1 25.5 78 28 5.8 42.4
19:40 1021 30.15 850 25.1 25.7 78.3 28 6.1 42.9
19:45 1020 30.12 850 25.1 25.6 78 29 6.3 43.4
19:50 1020 30.12 850 25.1 25.5 77.8 29 6.3 43.3
19:55 1020 30.12 850 25.1 25.4 77.6 29 6.1 43
20:00 1020 30.12 850 25.1 25.1 77.2 29 6 42.8
20:05 1020 30.12 850 25.1 25 77 29 6 42.7
20:10 1020 30.12 850 25.1 24.9 76.8 29 5.9 42.7
20:15 1020 30.12 850 25.1 24.9 76.9 29 6.1 42.9
20:20 1020 30.12 850 25.1 25 77 29 6.2 43.2
20:25 1020 30.12 850 25.1 24.9 76.9 30 6.4 43.5
20:30 1020 30.12 850 25.1 24.9 76.9 30 6.5 43.7
20:35 1020 30.12 850 25.1 24.8 76.7 30 6.3 43.4
20:40 1020 30.12 850 25.1 24.7 76.5 30 6.5 43.6
20:45 1020 30.12 850 25.1 24.7 76.4 31 6.7 44.1
20:50 1020 30.12 850 25.1 24.5 76.1 32 7.1 44.8
20:55 1020 30.12 850 25.1 24.2 75.6 39 9.7 49.4
21:00 1021 30.15 850 25.1 23.8 74.9 40 9.7 49.5
21:05 1021 30.15 850 25.1 23.4 74.1 43 10.4 50.7
21:10 1021 30.15 850 25.1 23.1 73.6 47 11.3 52.4
21:15 1021 30.15 850 25.1 22.5 72.4 53 12.5 54.5
21:20 1021 30.15 850 25.1 21.8 71.2 51 11.3 52.4
21:25 1021 30.15 850 25.1 21.3 70.4 52 11.1 52
21:30 1021 30.15 850 25.1 20.8 69.5 56 12 53.5
21:35 1021 30.15 850 25.1 20.3 68.5 58 11.9 53.4
21:40 1021 30.15 850 25.1 19.8 67.6 51 9.4 48.9
21:45 1021 30.15 850 25.1 19.9 67.9 50 9.5 49.1
21:50 1021 30.15 850 25.1 19.7 67.4 52 9.8 49.7
21:55 1021 30.15 850 25.1 18.9 66.1 54 9.6 49.3
22:00 1021 30.15 851 25.13 18.7 65.6 53 9 48.3
22:05 1021 30.15 851 25.13 19.2 66.5 50 8.6 47.5
22:10 1021 30.15 851 25.13 19.2 66.6 51 8.9 48.1
22:15 1022 30.18 851 25.13 19.1 66.4 51 8.8 47.8
22:20 1022 30.18 851 25.13 19.3 66.7 49 8.5 47.3
22:25 1022 30.18 851 25.13 19 66.2 51 8.7 47.7
22:30 1022 30.18 851 25.13 18.8 65.8 53 9.1 48.3
22:35 1022 30.18 851 25.13 18.6 65.4 55 9.6 49.3
22:40 1022 30.18 851 25.13 18.4 65.2 54 9 48.2
22:45 1022 30.18 851 25.13 18.2 64.8 54 8.9 48.1
22:50 1022 30.18 851 25.13 18.2 64.7 55 9.1 48.4
22:55 1022 30.18 851 25.13 18.1 64.5 56 9.2 48.5
23:00 1022 30.18 851 25.13 17.9 64.2 58 9.5 49.2
23:05 1022 30.18 851 25.13 17.9 64.2 59 9.9 49.9
23:10 1022 30.18 851 25.13 17.8 64 58 9.4 48.9
23:15 1022 30.18 851 25.13 17.6 63.8 59 9.6 49.2
23:20 1021 30.15 851 25.13 17.3 63.2 60 9.5 49.2
23:25 1021 30.15 851 25.13 17 62.6 61 9.5 49.1
23:30 1021 30.15 851 25.13 16.9 62.4 61 9.3 48.7
23:35 1021 30.15 851 25.13 16.8 62.2 63 9.8 49.6
23:40 1021 30.15 851 25.13 16.7 62 62 9.4 49
23:45 1021 30.15 851 25.13 16.4 61.4 63 9.4 48.9
23:50 1021 30.15 851 25.13 16.2 61.2 63 9.3 48.8
23:55 1021 30.15 851 25.13 16.2 61.1 63 9.2 48.6
24:00 1021 30.15 851 25.13 16.2 61.1 63 9.2 48.5